Time;durP1;ratioP1;P1;durP2;ratioP2;P2;SDS_P1;SDS_P2;PMS_P1;PMS_P2;Temp;Humidity;BMP_temperature;BMP_pressure;BME280_temperature;BME280_humidity;BME280_pressure;Samples;Min_cycle;Max_cycle;Signal;HPM_P1;HPM_P2
2023/03/06 00:00:20;;;;;;;3.53;2.00;;;;;;;15.60;34.03;99625.31;5071806;28;20052;-66
2023/03/06 00:02:48;;;;;;;3.67;2.13;;;;;;;15.56;34.05;99625.72;5071879;28;20044;-65
2023/03/06 00:05:17;;;;;;;3.75;2.20;;;;;;;15.55;34.10;99629.41;5071766;28;20127;-67
2023/03/06 00:07:46;;;;;;;3.83;2.28;;;;;;;15.51;34.07;99627.97;5071871;28;20041;-67
2023/03/06 00:10:16;;;;;;;4.30;2.00;;;;;;;15.48;34.00;99620.19;5071782;28;20067;-67
2023/03/06 00:12:44;;;;;;;4.30;2.00;;;;;;;15.44;34.06;99620.47;5071791;28;20052;-67
2023/03/06 00:15:13;;;;;;;3.63;1.88;;;;;;;15.43;34.03;99624.13;5071736;28;20116;-68
2023/03/06 00:17:41;;;;;;;4.13;2.17;;;;;;;15.39;33.93;99628.09;5071714;28;20045;-67
2023/03/06 00:20:10;;;;;;;3.47;1.98;;;;;;;15.35;33.99;99613.22;5071608;28;20052;-67
2023/03/06 00:22:39;;;;;;;3.15;1.95;;;;;;;15.31;34.02;99621.69;5071595;28;20047;-67
2023/03/06 00:25:13;;;;;;;3.40;1.90;;;;;;;15.31;33.97;99617.16;5071623;28;20532;-67
2023/03/06 00:27:43;;;;;;;3.70;2.15;;;;;;;15.28;34.01;99617.44;5071713;28;20072;-67
2023/03/06 00:30:13;;;;;;;5.22;2.13;;;;;;;15.24;33.84;99616.00;5071723;28;20044;-67
2023/03/06 00:32:42;;;;;;;3.65;2.00;;;;;;;15.22;34.00;99611.78;5074354;28;20102;-67
2023/03/06 00:35:10;;;;;;;3.10;1.75;;;;;;;15.18;33.97;99605.84;5075676;28;20067;-67
2023/03/06 00:37:39;;;;;;;3.42;1.88;;;;;;;15.17;34.11;99598.75;5075535;28;20055;-67
2023/03/06 00:40:12;;;;;;;3.33;1.83;;;;;;;15.10;34.01;99594.91;5075286;28;20079;-66
2023/03/06 00:42:41;;;;;;;3.35;1.80;;;;;;;15.12;34.17;99603.69;5075438;28;20045;-67
2023/03/06 00:45:10;;;;;;;3.33;1.98;;;;;;;15.09;34.12;99595.91;5075308;28;20048;-67
2023/03/06 00:47:40;;;;;;;3.65;2.17;;;;;;;15.03;34.09;99596.44;5075317;28;20080;-67
2023/03/06 00:50:10;;;;;;;3.65;1.88;;;;;;;15.03;34.16;99608.03;5075298;28;20045;-67
2023/03/06 00:52:40;;;;;;;3.13;1.80;;;;;;;14.99;34.00;99595.88;5075362;28;20408;-66
2023/03/06 00:55:11;;;;;;;4.07;2.00;;;;;;;15.00;34.03;99602.09;5075173;28;20052;-68
2023/03/06 00:57:39;;;;;;;4.40;2.35;;;;;;;14.96;33.91;99601.53;5075119;28;20610;-67
2023/03/06 01:00:10;;;;;;;3.55;2.00;;;;;;;14.94;34.01;99602.63;5075277;28;20540;-67
2023/03/06 01:02:39;;;;;;;3.47;2.00;;;;;;;14.92;33.92;99594.72;5075078;28;20044;-67
2023/03/06 01:05:08;;;;;;;3.05;1.80;;;;;;;14.89;33.90;99592.31;5074907;28;20045;-67
2023/03/06 01:07:37;;;;;;;3.60;1.90;;;;;;;14.86;34.11;99596.13;5074887;28;20055;-65
2023/03/06 01:10:07;;;;;;;3.85;2.00;;;;;;;14.83;33.88;99591.00;5074999;28;20490;-65
2023/03/06 01:12:37;;;;;;;3.55;2.00;;;;;;;14.80;34.06;99591.28;5074842;28;20090;-66
2023/03/06 01:15:07;;;;;;;3.47;1.98;;;;;;;14.78;33.99;99585.19;5074817;28;20131;-66
2023/03/06 01:17:35;;;;;;;3.15;1.80;;;;;;;14.76;33.87;99580.94;5074783;28;20090;-66
2023/03/06 01:20:05;;;;;;;3.72;2.00;;;;;;;14.74;33.88;99578.38;5074823;28;20071;-65
2023/03/06 01:22:33;;;;;;;3.92;2.13;;;;;;;14.72;34.03;99576.84;5074843;28;20048;-67
2023/03/06 01:25:01;;;;;;;4.60;2.13;;;;;;;14.69;34.05;99569.91;5074862;28;20068;-67
2023/03/06 01:27:29;;;;;;;3.30;1.88;;;;;;;14.65;34.06;99565.78;5077716;28;20440;-67
2023/03/06 01:29:59;;;;;;;3.38;1.88;;;;;;;14.65;34.06;99571.13;5076423;28;20549;-66
2023/03/06 01:32:27;;;;;;;3.08;1.88;;;;;;;14.63;34.10;99573.13;5077814;28;20040;-67
2023/03/06 01:34:55;;;;;;;3.75;2.20;;;;;;;14.61;34.01;99572.41;5074940;28;20048;-67
2023/03/06 01:37:24;;;;;;;3.17;2.03;;;;;;;14.58;33.98;99570.84;5056555;28;20386;-66
2023/03/06 01:39:52;;;;;;;4.20;2.00;;;;;;;14.56;33.90;99567.44;5074327;28;20064;-67
2023/03/06 01:42:20;;;;;;;5.07;2.13;;;;;;;14.54;34.15;99563.19;5074479;28;20045;-67
2023/03/06 01:45:48;;;;;;;3.45;2.00;;;;;;;14.50;34.04;99551.88;5074291;28;20048;-68
2023/03/06 01:48:17;;;;;;;3.45;2.00;;;;;;;14.49;34.10;99550.19;5074183;28;20049;-66
2023/03/06 01:50:46;;;;;;;4.25;1.85;;;;;;;14.47;34.15;99556.66;5074340;28;20048;-66
2023/03/06 01:53:15;;;;;;;4.90;1.98;;;;;;;14.46;34.28;99557.63;5074113;28;20045;-67
2023/03/06 01:55:43;;;;;;;3.85;2.15;;;;;;;14.45;34.11;99558.63;5074204;28;20664;-67
2023/03/06 01:58:16;;;;;;;2.97;1.83;;;;;;;14.43;34.21;99569.47;5073900;28;20386;-67
2023/03/06 02:00:45;;;;;;;3.33;1.87;;;;;;;14.40;34.21;99560.84;5074112;28;20446;-67
2023/03/06 02:03:17;;;;;;;4.53;2.10;;;;;;;14.39;34.13;99569.88;5074086;28;20127;-67
2023/03/06 02:05:46;;;;;;;4.13;2.15;;;;;;;14.38;34.14;99557.41;5073953;28;20119;-67
2023/03/06 02:08:19;;;;;;;4.18;2.20;;;;;;;14.33;34.07;99556.00;5073926;28;20119;-67
2023/03/06 02:10:58;;;;;;;3.67;1.98;;;;;;;14.33;34.02;99558.69;5073869;28;20045;-67
2023/03/06 02:13:26;;;;;;;4.45;1.95;;;;;;;14.27;34.03;99553.84;5073696;28;20121;-67
2023/03/06 02:15:56;;;;;;;4.40;2.30;;;;;;;14.31;34.04;99557.13;5073599;28;20055;-67
2023/03/06 02:18:25;;;;;;;3.40;1.90;;;;;;;14.28;34.04;99566.28;5073527;28;20076;-68
2023/03/06 02:20:57;;;;;;;3.90;2.05;;;;;;;14.26;34.29;99562.88;5073556;28;20054;-67
2023/03/06 02:23:32;;;;;;;3.83;1.80;;;;;;;14.25;34.33;99558.47;5073501;28;20048;-67
2023/03/06 02:26:02;;;;;;;3.63;1.83;;;;;;;14.22;34.32;99552.53;5073525;28;20123;-67
2023/03/06 02:28:30;;;;;;;3.13;1.95;;;;;;;14.22;34.29;99548.03;5073460;28;20485;-66
2023/03/06 02:30:58;;;;;;;2.75;1.70;;;;;;;14.21;34.37;99551.69;5073433;28;20041;-67
2023/03/06 02:33:29;;;;;;;3.80;1.95;;;;;;;14.19;34.41;99552.81;5073446;28;20083;-66
2023/03/06 02:35:59;;;;;;;3.25;1.90;;;;;;;14.15;34.34;99546.84;5073257;28;20044;-68
2023/03/06 02:38:31;;;;;;;3.63;2.03;;;;;;;14.15;34.26;99546.84;5073018;28;20091;-67
2023/03/06 02:41:03;;;;;;;3.22;1.90;;;;;;;14.14;34.36;99550.50;5073288;28;20102;-67
2023/03/06 02:43:34;;;;;;;3.95;2.00;;;;;;;14.14;34.41;99557.72;5073309;28;20064;-67
2023/03/06 02:46:02;;;;;;;4.13;1.90;;;;;;;14.09;34.37;99547.41;5073115;28;20055;-65
2023/03/06 02:48:30;;;;;;;3.40;1.95;;;;;;;14.12;34.41;99562.38;5073030;28;20079;-67
2023/03/06 02:50:59;;;;;;;3.67;1.92;;;;;;;14.10;34.36;99565.19;5073019;28;20075;-67
2023/03/06 02:53:27;;;;;;;3.72;1.70;;;;;;;14.09;34.40;99565.28;5072956;28;20052;-66
2023/03/06 02:55:55;;;;;;;3.05;1.80;;;;;;;14.07;34.24;99562.75;5072453;28;20056;-67
2023/03/06 02:58:25;;;;;;;4.25;1.98;;;;;;;14.06;34.44;99561.03;5072747;28;20475;-67
2023/03/06 03:00:53;;;;;;;3.97;2.10;;;;;;;14.04;34.25;99565.69;5072810;28;20072;-67
2023/03/06 03:03:21;;;;;;;4.28;1.80;;;;;;;14.02;34.42;99562.31;5072720;28;20075;-67
2023/03/06 03:05:49;;;;;;;3.20;2.00;;;;;;;14.01;34.34;99556.09;5072742;28;20052;-67
2023/03/06 03:08:17;;;;;;;3.95;1.80;;;;;;;14.00;34.20;99564.28;5072680;28;20040;-67
2023/03/06 03:10:46;;;;;;;3.50;1.70;;;;;;;13.99;34.29;99557.19;5072738;28;20136;-66
2023/03/06 03:13:14;;;;;;;3.30;1.80;;;;;;;13.97;34.32;99559.16;5072951;28;20040;-68
2023/03/06 03:15:44;;;;;;;2.75;1.70;;;;;;;13.96;34.33;99552.09;5072371;28;20401;-66
2023/03/06 03:18:12;;;;;;;3.78;1.80;;;;;;;13.95;34.33;99555.75;5072393;28;20135;-67
2023/03/06 03:20:42;;;;;;;3.33;1.85;;;;;;;13.91;34.59;99549.81;5072961;28;20055;-66
2023/03/06 03:23:11;;;;;;;3.90;1.70;;;;;;;13.92;34.38;99550.66;5073314;28;20072;-67
2023/03/06 03:25:39;;;;;;;3.42;2.00;;;;;;;13.92;34.40;99554.19;5074451;28;20041;-67
2023/03/06 03:28:07;;;;;;;3.45;1.80;;;;;;;13.91;34.52;99551.66;5074356;28;20405;-66
2023/03/06 03:30:35;;;;;;;3.58;1.60;;;;;;;13.89;34.34;99550.91;5074233;28;20049;-68
2023/03/06 03:33:04;;;;;;;3.72;1.80;;;;;;;13.88;34.57;99543.84;5072812;28;20048;-67
2023/03/06 03:35:33;;;;;;;3.22;1.92;;;;;;;13.85;34.58;99550.31;5073910;28;20052;-67
2023/03/06 03:38:02;;;;;;;3.35;1.90;;;;;;;13.85;34.65;99536.91;5074911;28;20091;-68
2023/03/06 03:40:30;;;;;;;3.70;1.95;;;;;;;13.85;34.44;99549.47;5075401;28;20103;-67
2023/03/06 03:42:58;;;;;;;2.92;1.67;;;;;;;13.85;34.62;99550.31;5073735;28;20045;-66
2023/03/06 03:45:26;;;;;;;4.03;1.90;;;;;;;13.83;34.48;99546.06;5073053;28;20083;-67
2023/03/06 03:47:54;;;;;;;3.83;2.03;;;;;;;13.83;34.63;99541.56;5072256;28;20049;-67
2023/03/06 03:50:24;;;;;;;3.20;1.73;;;;;;;13.83;34.63;99540.72;5072143;28;20060;-67
2023/03/06 03:52:52;;;;;;;4.00;1.90;;;;;;;13.81;34.56;99540.84;5072129;28;20498;-67
2023/03/06 03:55:20;;;;;;;3.55;1.60;;;;;;;13.80;34.66;99539.16;5071969;28;20505;-67
2023/03/06 03:57:48;;;;;;;3.15;1.90;;;;;;;13.80;34.84;99543.63;5072314;28;20227;-67
2023/03/06 04:00:18;;;;;;;3.30;1.80;;;;;;;13.79;34.61;99539.25;5071920;28;20054;-67
2023/03/06 04:02:47;;;;;;;4.05;2.00;;;;;;;13.78;34.83;99541.09;5072023;28;20101;-66
2023/03/06 04:05:15;;;;;;;4.10;1.90;;;;;;;13.74;34.73;99536.97;5071806;28;20048;-67
2023/03/06 04:07:45;;;;;;;5.28;2.05;;;;;;;13.77;34.61;99539.41;5071262;28;20519;-67
2023/03/06 04:10:13;;;;;;;3.97;1.80;;;;;;;13.75;34.92;99544.88;5071761;28;20758;-66
2023/03/06 04:12:41;;;;;;;4.25;1.90;;;;;;;13.74;34.71;99543.19;5071965;28;20592;-67
2023/03/06 04:15:10;;;;;;;3.70;1.90;;;;;;;13.74;34.67;99548.56;5071990;28;20113;-67
2023/03/06 04:17:38;;;;;;;3.90;1.90;;;;;;;13.73;34.88;99535.28;5071730;28;20499;-66
2023/03/06 04:20:07;;;;;;;2.75;1.60;;;;;;;13.73;34.68;99536.13;5071666;28;20044;-66
2023/03/06 04:22:35;;;;;;;3.45;1.60;;;;;;;13.71;34.66;99539.94;5071591;28;20047;-67
2023/03/06 04:25:06;;;;;;;3.20;1.80;;;;;;;13.68;34.88;99538.34;5071783;28;20045;-68
2023/03/06 04:27:34;;;;;;;4.18;1.75;;;;;;;13.71;34.82;99547.97;5071724;28;20051;-66
2023/03/06 04:30:02;;;;;;;4.82;1.67;;;;;;;13.69;34.90;99547.22;5071950;28;20049;-67
2023/03/06 04:32:31;;;;;;;2.92;1.80;;;;;;;13.68;34.95;99546.38;5071583;28;20047;-65
2023/03/06 04:35:00;;;;;;;3.28;1.70;;;;;;;13.68;34.92;99542.84;5071440;28;20048;-67
2023/03/06 04:37:28;;;;;;;3.75;1.90;;;;;;;13.65;34.82;99537.75;5071406;28;20082;-66
2023/03/06 04:39:57;;;;;;;3.42;1.88;;;;;;;13.67;34.98;99536.63;5071366;28;20052;-67
2023/03/06 04:42:27;;;;;;;3.15;1.63;;;;;;;13.72;35.09;99539.78;5071408;28;20051;-67
2023/03/06 04:44:55;;;;;;;3.47;1.90;;;;;;;13.80;35.13;99546.31;5071480;28;20044;-67
2023/03/06 04:47:23;;;;;;;3.22;1.73;;;;;;;13.88;35.23;99538.47;5071499;28;20044;-67
2023/03/06 04:49:51;;;;;;;4.78;1.70;;;;;;;13.98;35.17;99539.41;5071426;28;20447;-67
2023/03/06 04:52:19;;;;;;;3.55;1.80;;;;;;;14.10;35.08;99533.00;5071446;28;20374;-67
2023/03/06 04:54:47;;;;;;;3.22;1.90;;;;;;;14.20;34.93;99533.91;5071243;28;20045;-66
2023/03/06 04:57:15;;;;;;;3.08;1.65;;;;;;;14.30;35.00;99532.13;5071342;28;20048;-67
2023/03/06 04:59:45;;;;;;;3.63;1.85;;;;;;;14.41;35.00;99528.50;5071123;28;20056;-67
2023/03/06 05:02:13;;;;;;;3.63;1.88;;;;;;;14.53;34.93;99529.28;5071224;28;20072;-67
2023/03/06 05:04:41;;;;;;;3.05;1.60;;;;;;;14.65;34.66;99533.56;5071408;28;20037;-67
2023/03/06 05:07:10;;;;;;;2.67;1.60;;;;;;;14.76;34.61;99525.41;5071145;28;20044;-67
2023/03/06 05:09:38;;;;;;;3.05;1.75;;;;;;;14.88;34.67;99535.06;5071185;28;20387;-67
2023/03/06 05:12:06;;;;;;;3.38;2.03;;;;;;;14.91;34.47;99522.34;5071215;28;20082;-67
2023/03/06 05:14:34;;;;;;;2.97;1.67;;;;;;;15.08;34.51;99535.13;5071082;28;20045;-66
2023/03/06 05:17:04;;;;;;;3.70;2.03;;;;;;;15.18;34.34;99530.63;5071104;28;20052;-65
2023/03/06 05:19:32;;;;;;;3.63;1.60;;;;;;;15.33;34.27;99534.56;5074804;28;20087;-67
2023/03/06 05:22:01;;;;;;;3.70;1.92;;;;;;;15.43;34.33;99530.06;5074756;28;20049;-67
2023/03/06 05:24:29;;;;;;;4.15;1.83;;;;;;;15.55;34.15;99524.56;5074644;28;20147;-67
2023/03/06 05:26:57;;;;;;;3.53;1.63;;;;;;;15.67;34.22;99528.84;5074696;28;20047;-66
2023/03/06 05:29:25;;;;;;;3.55;1.80;;;;;;;15.76;34.03;99530.66;5074477;28;20045;-66
2023/03/06 05:31:54;;;;;;;3.10;1.80;;;;;;;15.83;34.02;99531.81;5074637;28;20492;-66
2023/03/06 05:34:24;;;;;;;3.95;2.20;;;;;;;15.96;34.03;99543.09;5074450;28;20443;-66
2023/03/06 05:36:52;;;;;;;3.35;1.95;;;;;;;16.03;33.88;99538.84;5074586;28;20052;-66
2023/03/06 05:39:20;;;;;;;2.88;1.60;;;;;;;16.10;33.81;99538.25;5074143;28;20052;-67
2023/03/06 05:41:48;;;;;;;3.15;1.70;;;;;;;16.14;33.83;99537.00;5074489;28;20497;-66
2023/03/06 05:44:16;;;;;;;3.90;1.98;;;;;;;16.16;33.79;99537.69;5074081;28;20054;-66
2023/03/06 05:46:44;;;;;;;4.32;2.00;;;;;;;16.17;33.89;99537.53;5074280;28;20106;-66
2023/03/06 05:49:13;;;;;;;3.90;1.70;;;;;;;16.16;33.89;99538.53;5074293;28;20410;-66
2023/03/06 05:51:42;;;;;;;3.58;1.92;;;;;;;16.15;34.06;99534.16;5074172;28;20045;-66
2023/03/06 05:54:10;;;;;;;3.28;1.88;;;;;;;16.17;33.97;99542.06;5074026;28;20505;-66
2023/03/06 05:56:39;;;;;;;3.90;1.88;;;;;;;16.13;34.06;99538.84;5073966;28;20127;-66
2023/03/06 05:59:10;;;;;;;3.03;2.00;;;;;;;16.12;34.09;99545.22;5073974;28;20049;-66
2023/03/06 06:01:38;;;;;;;4.65;2.05;;;;;;;16.07;34.08;99536.72;5073735;28;20040;-66
2023/03/06 06:04:06;;;;;;;3.78;1.95;;;;;;;16.06;34.16;99543.09;5073835;28;20055;-65
2023/03/06 06:06:34;;;;;;;4.00;1.90;;;;;;;16.04;34.11;99545.06;5073926;28;20045;-67
2023/03/06 06:09:04;;;;;;;3.17;1.67;;;;;;;16.01;34.08;99539.97;5073773;28;20040;-66
2023/03/06 06:11:32;;;;;;;5.05;2.08;;;;;;;15.96;34.15;99545.78;5073698;28;20047;-66
2023/03/06 06:14:00;;;;;;;3.33;1.92;;;;;;;15.95;34.17;99552.16;5073786;28;20405;-66
2023/03/06 06:16:29;;;;;;;3.58;1.90;;;;;;;15.88;34.22;99548.34;5073678;28;20067;-66
2023/03/06 06:18:57;;;;;;;3.83;2.00;;;;;;;15.86;34.24;99547.66;5073614;28;20052;-66
2023/03/06 06:21:25;;;;;;;3.22;1.90;;;;;;;15.84;34.20;99549.63;5073538;28;20052;-66
2023/03/06 06:23:53;;;;;;;3.22;1.88;;;;;;;15.83;34.35;99552.47;5073450;28;20508;-65
2023/03/06 06:26:23;;;;;;;3.25;1.80;;;;;;;15.79;34.33;99556.41;5073121;28;20064;-66
2023/03/06 06:28:51;;;;;;;4.22;1.83;;;;;;;15.76;34.49;99562.94;5056193;28;20049;-66
2023/03/06 06:31:19;;;;;;;3.03;2.00;;;;;;;15.71;34.56;99560.66;5057868;28;20037;-64
2023/03/06 06:33:47;;;;;;;4.38;2.00;;;;;;;15.68;34.70;99560.09;5061994;28;20127;-64
2023/03/06 06:36:17;;;;;;;3.53;2.03;;;;;;;15.65;34.62;99555.88;5052775;28;20045;-64
2023/03/06 06:38:46;;;;;;;3.60;2.00;;;;;;;15.61;34.67;99558.97;5052786;28;20132;-64
2023/03/06 06:41:17;;;;;;;3.85;2.15;;;;;;;15.58;34.31;99564.59;5052988;28;20150;-64
2023/03/06 06:44:10;;;;;;;3.50;2.03;;;;;;;15.54;34.54;99558.66;5052784;28;20049;-65
2023/03/06 06:46:38;;;;;;;4.47;2.15;;;;;;;15.52;34.49;99559.78;5053085;28;20045;-66
2023/03/06 06:49:26;;;;;;;3.95;1.98;;;;;;;15.49;34.46;99560.06;5052644;28;20044;-66
2023/03/06 06:51:54;;;;;;;4.07;2.17;;;;;;;15.45;34.41;99557.66;5053124;28;20060;-65
2023/03/06 06:54:23;;;;;;;4.32;2.63;;;;;;;15.39;34.29;99554.69;5052797;28;20041;-66
2023/03/06 06:56:51;;;;;;;4.15;2.15;;;;;;;15.38;34.32;99553.84;5052763;28;20482;-65
2023/03/06 06:59:22;;;;;;;4.72;2.30;;;;;;;15.35;34.37;99556.81;5065604;28;20054;-66
2023/03/06 07:01:50;;;;;;;4.68;2.42;;;;;;;15.32;34.41;99557.06;5072865;28;20473;-65
2023/03/06 07:04:19;;;;;;;4.75;2.38;;;;;;;15.26;34.43;99549.59;5072552;28;20482;-63
2023/03/06 07:06:47;;;;;;;4.82;2.30;;;;;;;15.27;34.50;99553.97;5072708;28;20466;-66
2023/03/06 07:09:16;;;;;;;3.78;2.25;;;;;;;15.26;34.40;99556.78;5072607;28;20051;-66
2023/03/06 07:11:45;;;;;;;3.92;2.10;;;;;;;15.21;34.41;99562.56;5072465;28;20051;-66
2023/03/06 07:14:13;;;;;;;4.13;2.35;;;;;;;15.16;34.62;99552.25;5072510;28;20052;-64
2023/03/06 07:16:43;;;;;;;4.15;2.15;;;;;;;15.17;34.47;99570.06;5072571;28;20124;-72
2023/03/06 07:19:11;;;;;;;4.43;2.05;;;;;;;15.16;34.54;99570.19;5072477;28;20048;-67
2023/03/06 07:21:39;;;;;;;3.60;1.85;;;;;;;15.14;34.64;99573.00;5072280;28;20044;-68
2023/03/06 07:24:08;;;;;;;4.32;2.40;;;;;;;15.11;34.84;99577.81;5072254;28;20116;-67
2023/03/06 07:26:37;;;;;;;4.93;2.42;;;;;;;15.10;34.66;99576.13;5072465;28;20045;-67
2023/03/06 07:29:05;;;;;;;4.50;2.25;;;;;;;15.08;34.64;99586.16;5072316;28;20044;-67
2023/03/06 07:31:33;;;;;;;3.90;2.10;;;;;;;15.07;34.79;99587.16;5072314;28;20115;-67
2023/03/06 07:34:05;;;;;;;3.63;2.17;;;;;;;15.04;34.69;99582.03;5072435;28;20040;-68
2023/03/06 07:36:33;;;;;;;4.30;2.33;;;;;;;15.03;34.73;99583.00;5072392;28;20047;-66
2023/03/06 07:39:01;;;;;;;4.30;2.15;;;;;;;15.00;34.83;99568.03;5072101;28;20052;-67
2023/03/06 07:41:30;;;;;;;4.72;2.42;;;;;;;14.98;34.95;99571.84;5072325;28;20055;-67
2023/03/06 07:43:59;;;;;;;4.82;2.35;;;;;;;14.97;34.85;99586.25;5073202;28;20044;-66
2023/03/06 07:46:27;;;;;;;4.32;2.20;;;;;;;14.97;34.95;99580.91;5074491;28;20048;-65
2023/03/06 07:48:55;;;;;;;4.40;2.42;;;;;;;14.93;35.02;99582.97;5074142;28;20048;-66
2023/03/06 07:51:25;;;;;;;5.22;2.47;;;;;;;14.92;35.04;99585.81;5073851;28;20094;-65
2023/03/06 07:53:53;;;;;;;5.10;2.33;;;;;;;14.89;34.94;99585.09;5073917;28;20123;-68
2023/03/06 07:56:21;;;;;;;5.50;2.90;;;;;;;14.90;34.72;99585.94;5072057;28;20052;-68
2023/03/06 07:58:50;;;;;;;4.80;2.65;;;;;;;14.88;34.87;99591.47;5072116;28;20106;-68
2023/03/06 08:01:23;;;;;;;4.22;2.22;;;;;;;14.88;35.01;99595.97;5071910;28;20441;-68
2023/03/06 08:03:52;;;;;;;4.43;2.30;;;;;;;14.86;35.03;99590.75;5072088;28;20048;-68
2023/03/06 08:06:21;;;;;;;4.53;2.30;;;;;;;14.86;35.03;99598.81;5072034;28;20068;-68
2023/03/06 08:08:52;;;;;;;4.75;2.40;;;;;;;14.86;34.91;99596.13;5072075;28;20044;-69
2023/03/06 08:11:22;;;;;;;4.32;2.38;;;;;;;14.82;35.04;99593.81;5071817;28;20076;-68
2023/03/06 08:13:51;;;;;;;3.78;2.13;;;;;;;14.84;35.11;99603.44;5071868;28;20044;-69
2023/03/06 08:16:20;;;;;;;5.30;2.80;;;;;;;14.83;34.74;99596.38;5073470;28;20052;-70
2023/03/06 08:18:49;;;;;;;3.67;2.20;;;;;;;14.79;35.24;99594.97;5071623;28;20126;-70
2023/03/06 08:21:19;;;;;;;4.22;2.33;;;;;;;14.79;35.28;99594.97;5071842;28;20040;-70
2023/03/06 08:23:48;;;;;;;4.38;2.40;;;;;;;14.80;35.29;99595.81;5072200;28;20045;-70
2023/03/06 08:26:19;;;;;;;5.82;2.92;;;;;;;14.78;35.24;99585.19;5071716;28;20051;-69
2023/03/06 08:28:48;;;;;;;4.35;2.38;;;;;;;14.78;35.24;99595.94;5071495;28;20585;-68
2023/03/06 08:31:24;;;;;;;4.40;2.65;;;;;;;14.76;35.24;99589.84;5070239;28;20048;-71
2023/03/06 08:33:53;;;;;;;4.57;2.45;;;;;;;14.76;35.37;99591.66;5071557;28;20501;-70
2023/03/06 08:36:22;;;;;;;4.88;2.80;;;;;;;14.74;35.26;99594.50;5071696;28;20055;-70
2023/03/06 08:38:51;;;;;;;4.15;2.67;;;;;;;14.72;35.31;99588.41;5072070;28;20060;-70
2023/03/06 08:41:21;;;;;;;4.20;2.50;;;;;;;14.73;35.33;99595.47;5071446;28;20048;-70
2023/03/06 08:43:49;;;;;;;4.35;2.42;;;;;;;14.72;35.51;99592.94;5071516;28;20110;-70
2023/03/06 08:46:18;;;;;;;5.50;2.58;;;;;;;14.71;35.35;99586.72;5071574;28;20055;-70
2023/03/06 08:48:47;;;;;;;4.72;2.63;;;;;;;14.71;35.33;99596.59;5071359;28;20052;-70
2023/03/06 08:51:16;;;;;;;4.53;2.72;;;;;;;14.71;35.52;99596.59;5071540;28;20438;-70
2023/03/06 08:53:47;;;;;;;4.07;2.30;;;;;;;14.70;35.36;99590.41;5074538;28;20053;-69
2023/03/06 08:56:17;;;;;;;4.82;2.70;;;;;;;14.66;35.58;99586.25;5076159;28;20486;-70
2023/03/06 08:58:47;;;;;;;5.30;2.60;;;;;;;14.69;35.49;99587.84;5075459;28;20052;-69
2023/03/06 09:01:18;;;;;;;4.07;2.40;;;;;;;14.67;35.53;99585.31;5075598;28;20098;-69
2023/03/06 09:03:46;;;;;;;5.30;2.47;;;;;;;14.68;35.50;99586.16;5075872;28;20044;-70
2023/03/06 09:06:14;;;;;;;4.90;2.80;;;;;;;14.68;35.60;99592.38;5077219;28;20446;-71
2023/03/06 09:08:43;;;;;;;5.22;2.63;;;;;;;14.68;35.59;99586.16;5078981;28;20047;-70
2023/03/06 09:11:13;;;;;;;5.15;2.50;;;;;;;14.67;35.53;99579.94;5075551;28;20135;-70
2023/03/06 09:13:42;;;;;;;4.57;2.40;;;;;;;14.66;35.65;99566.63;5074704;28;20444;-70
2023/03/06 09:16:12;;;;;;;5.00;2.83;;;;;;;14.67;35.69;99569.19;5074859;28;20045;-70
2023/03/06 09:18:40;;;;;;;4.53;2.50;;;;;;;14.68;35.75;99567.34;5074503;28;20051;-69
2023/03/06 09:21:09;;;;;;;4.22;2.42;;;;;;;14.69;35.85;99571.75;5074265;28;20040;-69
2023/03/06 09:23:39;;;;;;;4.97;2.85;;;;;;;14.69;35.73;99572.59;5074471;28;20040;-69
2023/03/06 09:26:08;;;;;;;4.90;2.60;;;;;;;14.70;35.79;99579.66;5074390;28;20044;-69
2023/03/06 09:28:37;;;;;;;4.82;2.60;;;;;;;14.70;35.60;99568.06;5074768;28;20055;-69
2023/03/06 09:31:09;;;;;;;5.00;2.80;;;;;;;14.70;35.61;99557.34;5074395;28;20132;-69
2023/03/06 09:33:39;;;;;;;5.80;2.65;;;;;;;14.73;35.79;99549.00;5074307;28;20051;-68
2023/03/06 09:36:10;;;;;;;4.53;2.45;;;;;;;14.69;35.72;99545.75;5074430;28;20074;-69
2023/03/06 09:38:38;;;;;;;5.07;2.88;;;;;;;14.75;35.62;99541.66;5074154;28;20565;-69
2023/03/06 09:41:15;;;;;;;5.00;2.70;;;;;;;14.78;35.63;99544.94;5074286;28;20044;-69
2023/03/06 09:43:46;;;;;;;5.93;2.88;;;;;;;14.78;35.53;99539.56;5074394;28;20440;-69
2023/03/06 09:46:22;;;;;;;5.95;2.88;;;;;;;14.80;35.70;99542.97;5074037;28;20041;-69
2023/03/06 09:49:09;;;;;;;5.22;3.10;;;;;;;14.80;35.58;99534.91;5074366;28;20435;-69
2023/03/06 09:51:50;;;;;;;4.55;3.10;;;;;;;14.81;35.65;99533.06;5074204;28;20045;-70
2023/03/06 09:54:26;;;;;;;4.70;2.78;;;;;;;14.83;35.31;99537.31;5074344;28;20064;-70
2023/03/06 09:56:55;;;;;;;5.22;2.92;;;;;;;14.84;35.66;99535.47;5074000;28;20075;-69
2023/03/06 09:59:25;;;;;;;4.68;2.72;;;;;;;14.81;35.57;99533.06;5073952;28;20083;-70
2023/03/06 10:02:00;;;;;;;5.68;2.70;;;;;;;14.80;35.85;99532.22;5074182;28;20057;-70
2023/03/06 10:04:38;;;;;;;5.63;2.97;;;;;;;14.79;35.83;99530.53;5072835;28;20048;-69
2023/03/06 10:07:14;;;;;;;4.70;2.83;;;;;;;14.78;35.67;99539.56;5073939;28;20060;-69
2023/03/06 10:09:48;;;;;;;4.43;2.55;;;;;;;14.82;35.69;99537.44;5073587;28;20490;-69
2023/03/06 10:12:22;;;;;;;5.35;3.05;;;;;;;14.84;35.74;99540.84;5073716;28;20413;-69
2023/03/06 10:15:02;;;;;;;4.63;2.70;;;;;;;14.82;35.71;99529.38;5073630;28;20045;-68
2023/03/06 10:17:35;;;;;;;4.70;2.75;;;;;;;14.83;35.84;99531.94;5073569;28;20405;-69
2023/03/06 10:20:17;;;;;;;4.43;2.35;;;;;;;14.82;35.83;99535.59;5073712;28;20067;-69
2023/03/06 10:22:57;;;;;;;4.55;2.65;;;;;;;14.82;35.74;99530.25;5073035;28;20067;-69
2023/03/06 10:25:36;;;;;;;4.65;2.60;;;;;;;14.83;35.92;99531.94;5073340;28;20044;-69
2023/03/06 10:28:14;;;;;;;4.70;2.85;;;;;;;14.82;35.83;99530.25;5073407;28;20121;-69
2023/03/06 10:30:51;;;;;;;5.80;2.80;;;;;;;14.82;36.02;99532.06;5073234;28;20052;-69
2023/03/06 10:33:33;;;;;;;3.78;2.35;;;;;;;14.80;35.95;99524.16;5073324;28;20072;-69
2023/03/06 10:36:03;;;;;;;4.55;2.70;;;;;;;14.82;35.96;99530.25;5073301;28;20055;-70
2023/03/06 10:38:36;;;;;;;4.72;2.67;;;;;;;14.82;35.88;99529.38;5073056;28;20460;-69
2023/03/06 10:41:16;;;;;;;5.45;2.80;;;;;;;14.80;35.96;99521.47;5073131;28;20053;-69
2023/03/06 10:44:06;;;;;;;4.63;2.80;;;;;;;14.78;36.06;99512.72;5073126;28;20044;-69
2023/03/06 10:46:37;;;;;;;4.80;2.83;;;;;;;14.80;36.09;99501.84;5072945;28;20106;-69
2023/03/06 10:49:22;;;;;;;4.75;2.70;;;;;;;14.78;35.84;99501.13;5072901;28;20040;-69
2023/03/06 10:51:58;;;;;;;4.82;2.50;;;;;;;14.77;36.05;99492.22;5073130;28;20050;-69
2023/03/06 10:54:27;;;;;;;4.85;2.90;;;;;;;14.79;36.12;99486.72;5072976;28;20067;-69
2023/03/06 10:56:55;;;;;;;5.90;2.85;;;;;;;14.79;36.11;99486.72;5072887;28;20044;-69
2023/03/06 10:59:27;;;;;;;5.38;2.80;;;;;;;14.77;36.16;99478.81;5072817;28;20748;-69
2023/03/06 11:01:56;;;;;;;4.57;2.80;;;;;;;14.78;36.22;99475.13;5072647;28;20048;-69
2023/03/06 11:04:27;;;;;;;4.38;2.72;;;;;;;14.78;36.32;99463.56;5072712;28;20410;-69
2023/03/06 11:07:12;;;;;;;4.53;2.60;;;;;;;14.78;36.29;99464.41;5072941;28;20119;-69
2023/03/06 11:09:41;;;;;;;4.93;2.90;;;;;;;14.75;36.34;99455.75;5072554;28;20555;-68
2023/03/06 11:12:25;;;;;;;4.88;2.90;;;;;;;14.77;36.15;99451.97;5072394;28;20512;-69
2023/03/06 11:15:17;;;;;;;5.57;2.88;;;;;;;14.76;36.30;99444.88;5072446;28;20040;-69
2023/03/06 11:17:54;;;;;;;4.47;2.63;;;;;;;14.78;36.29;99442.91;5072480;28;20443;-68
2023/03/06 11:20:25;;;;;;;5.13;2.85;;;;;;;14.77;36.31;99432.31;5072479;28;20106;-68
2023/03/06 11:22:59;;;;;;;5.20;2.90;;;;;;;14.75;36.47;99427.06;5071936;28;20048;-69
2023/03/06 11:25:33;;;;;;;4.68;2.60;;;;;;;14.76;36.39;99426.06;5072306;28;20103;-69
2023/03/06 11:28:05;;;;;;;4.43;2.70;;;;;;;14.75;36.30;99419.00;5072215;28;20059;-69
2023/03/06 11:30:39;;;;;;;5.75;2.97;;;;;;;14.75;36.47;99410.97;5072334;28;20049;-69
2023/03/06 11:33:18;;;;;;;5.38;2.83;;;;;;;14.75;36.42;99410.97;5072099;28;20055;-69
2023/03/06 11:35:56;;;;;;;5.00;3.08;;;;;;;14.76;36.23;99401.06;5071999;28;20052;-70
2023/03/06 11:38:35;;;;;;;4.53;2.65;;;;;;;14.76;36.38;99396.56;5071936;28;20075;-68
2023/03/06 11:41:12;;;;;;;4.03;2.53;;;;;;;14.75;36.27;99389.50;5071953;28;20048;-69
2023/03/06 11:43:52;;;;;;;5.85;2.83;;;;;;;14.74;36.34;99382.44;5071896;28;20082;-69
2023/03/06 11:46:26;;;;;;;5.03;2.88;;;;;;;14.74;36.19;99377.06;5072011;28;20052;-69
2023/03/06 11:49:02;;;;;;;5.70;2.88;;;;;;;14.75;36.37;99370.69;5071714;28;20068;-69